createdAt,value
2023-05-17T00:00:06.958Z,1.10
2023-05-17T00:02:34.628Z,1.50
2023-05-17T00:05:03.862Z,1.30
2023-05-17T00:07:31.514Z,1.30
2023-05-17T00:10:00.219Z,0.93
2023-05-17T00:12:27.892Z,1.13
2023-05-17T00:14:55.472Z,1.00
2023-05-17T00:17:23.065Z,0.95
2023-05-17T00:19:51.108Z,1.17
2023-05-17T00:22:20.085Z,1.08
2023-05-17T00:24:47.665Z,1.17
2023-05-17T00:27:15.248Z,0.82
2023-05-17T00:29:43.302Z,0.93
2023-05-17T00:32:12.205Z,0.88
2023-05-17T00:34:39.899Z,0.88
2023-05-17T00:37:07.940Z,0.70
2023-05-17T00:39:36.911Z,0.70
2023-05-17T00:42:05.726Z,0.90
2023-05-17T00:44:33.256Z,0.73
2023-05-17T00:47:00.883Z,0.98
2023-05-17T00:49:28.489Z,1.00
2023-05-17T00:51:56.654Z,0.82
2023-05-17T00:54:24.600Z,0.95
2023-05-17T00:56:53.786Z,0.75
2023-05-17T00:59:22.303Z,1.00
2023-05-17T01:01:51.526Z,1.20
2023-05-17T01:04:19.715Z,1.02
2023-05-17T01:06:47.402Z,0.75
2023-05-17T01:09:15.078Z,1.05
2023-05-17T01:11:49.587Z,1.10
2023-05-17T01:14:33.333Z,0.85
2023-05-17T01:19:51.008Z,0.88
2023-05-17T01:22:28.404Z,1.00
2023-05-17T01:25:12.058Z,1.20
2023-05-17T01:30:15.442Z,1.08
2023-05-17T01:32:44.908Z,1.10
2023-05-17T01:35:13.102Z,1.08
2023-05-17T01:37:40.852Z,1.08
2023-05-17T01:40:10.352Z,1.05
2023-05-17T01:42:42.588Z,1.20
2023-05-17T01:45:17.533Z,1.17
2023-05-17T01:47:54.213Z,1.48
2023-05-17T01:50:25.237Z,1.02
2023-05-17T01:52:55.126Z,1.00
2023-05-17T01:55:32.169Z,1.10
2023-05-17T01:58:05.126Z,1.00
2023-05-17T02:00:33.482Z,1.08
2023-05-17T02:03:01.172Z,1.15
2023-05-17T02:05:28.813Z,0.80
2023-05-17T02:07:56.685Z,1.02
2023-05-17T02:10:24.391Z,1.10
2023-05-17T02:12:51.940Z,0.73
2023-05-17T02:15:22.408Z,1.13
2023-05-17T02:17:50.130Z,1.20
2023-05-17T02:20:17.878Z,1.20
2023-05-17T02:22:45.929Z,0.90
2023-05-17T02:25:13.579Z,0.73
2023-05-17T02:27:41.209Z,1.08
2023-05-17T02:30:09.703Z,0.70
2023-05-17T02:32:38.752Z,0.90
2023-05-17T02:35:08.340Z,0.73
2023-05-17T02:37:36.459Z,0.90
2023-05-17T02:40:08.543Z,1.05
2023-05-17T02:42:36.340Z,0.77
2023-05-17T02:45:04.288Z,0.80
2023-05-17T02:47:32.093Z,1.10
2023-05-17T02:50:01.158Z,1.58
2023-05-17T02:52:28.990Z,1.27
2023-05-17T02:54:56.801Z,1.00
2023-05-17T02:57:24.470Z,0.90
2023-05-17T02:59:52.176Z,1.00
2023-05-17T03:02:20.937Z,0.90
2023-05-17T03:04:50.750Z,0.80
2023-05-17T03:07:20.220Z,0.90
2023-05-17T03:09:47.873Z,0.70
2023-05-17T03:12:15.896Z,0.98
2023-05-17T03:14:43.522Z,1.08
2023-05-17T03:17:12.092Z,0.98
2023-05-17T03:19:41.015Z,0.63
2023-05-17T03:22:08.837Z,1.23
2023-05-17T03:24:37.955Z,0.68
2023-05-17T03:27:06.495Z,0.70
2023-05-17T03:29:35.692Z,0.98
2023-05-17T03:32:04.394Z,0.98
2023-05-17T03:34:32.573Z,1.10
2023-05-17T03:37:02.031Z,0.80
2023-05-17T03:39:30.160Z,0.77
2023-05-17T03:41:59.637Z,0.98
2023-05-17T03:44:29.204Z,0.80
2023-05-17T03:46:57.902Z,0.90
2023-05-17T03:49:25.772Z,0.73
2023-05-17T03:51:54.367Z,1.58
2023-05-17T03:54:22.035Z,2.10
2023-05-17T03:56:50.336Z,1.50
2023-05-17T03:59:20.542Z,1.20
2023-05-17T04:01:48.408Z,1.00
2023-05-17T04:04:16.146Z,0.82
2023-05-17T04:06:43.833Z,1.08
2023-05-17T04:09:13.784Z,1.00
2023-05-17T04:11:41.706Z,0.95
2023-05-17T04:14:09.340Z,1.20
2023-05-17T04:16:38.325Z,1.02
2023-05-17T04:19:06.183Z,0.90
2023-05-17T04:21:33.970Z,0.70
2023-05-17T04:24:02.306Z,0.55
2023-05-17T04:26:30.611Z,1.10
2023-05-17T04:28:58.884Z,0.98
2023-05-17T04:31:26.467Z,0.95
2023-05-17T04:33:55.580Z,1.15
2023-05-17T04:36:23.532Z,1.20
2023-05-17T04:38:51.863Z,0.90
2023-05-17T04:41:24.114Z,0.90
2023-05-17T04:43:51.774Z,1.25
2023-05-17T04:46:26.689Z,1.55
2023-05-17T04:48:57.195Z,1.23
2023-05-17T04:51:26.964Z,1.02
2023-05-17T04:53:54.832Z,0.90
2023-05-17T04:56:22.609Z,2.22
2023-05-17T04:58:52.773Z,4.15
2023-05-17T05:01:20.854Z,3.88
2023-05-17T05:03:49.028Z,3.10
2023-05-17T05:06:18.083Z,1.70
2023-05-17T05:08:45.757Z,2.03
2023-05-17T05:11:14.192Z,1.83
2023-05-17T05:13:42.394Z,1.48
2023-05-17T05:16:10.171Z,1.33
2023-05-17T05:18:38.758Z,0.80
2023-05-17T05:21:06.843Z,1.08
2023-05-17T05:23:35.945Z,0.93
2023-05-17T05:26:03.746Z,1.52
2023-05-17T05:28:31.434Z,0.90
2023-05-17T05:31:00.668Z,1.40
2023-05-17T05:33:34.499Z,1.25
2023-05-17T05:36:02.976Z,2.92
2023-05-17T05:38:30.783Z,2.40
2023-05-17T05:41:00.018Z,1.77
2023-05-17T05:43:27.799Z,1.50
2023-05-17T05:45:55.612Z,1.17
2023-05-17T05:48:23.495Z,1.30
2023-05-17T05:50:51.430Z,1.42
2023-05-17T05:53:19.913Z,1.00
2023-05-17T05:55:52.109Z,1.95
2023-05-17T05:58:22.261Z,1.48
2023-05-17T06:00:50.751Z,1.20
2023-05-17T06:03:18.459Z,1.30
2023-05-17T06:05:46.145Z,1.27
2023-05-17T06:08:13.871Z,1.45
2023-05-17T06:10:41.536Z,1.63
2023-05-17T06:13:10.649Z,2.13
2023-05-17T06:15:39.704Z,0.90
2023-05-17T06:18:07.505Z,1.10
2023-05-17T06:20:35.132Z,1.13
2023-05-17T06:23:05.100Z,1.10
2023-05-17T06:25:33.025Z,1.88
2023-05-17T06:28:02.608Z,2.83
2023-05-17T06:30:30.568Z,2.15
2023-05-17T06:33:00.096Z,1.67
2023-05-17T06:35:28.089Z,1.17
2023-05-17T06:37:56.779Z,1.30
2023-05-17T06:40:24.494Z,1.23
2023-05-17T06:42:52.145Z,1.60
2023-05-17T06:45:19.800Z,1.40
2023-05-17T06:47:47.465Z,1.20
2023-05-17T06:50:16.621Z,1.52
2023-05-17T06:52:44.300Z,1.42
2023-05-17T06:55:11.951Z,1.77
2023-05-17T06:57:39.615Z,1.52
2023-05-17T07:00:10.947Z,1.75
2023-05-17T07:02:38.684Z,1.60
2023-05-17T07:05:07.382Z,1.58
2023-05-17T07:07:36.426Z,1.60
2023-05-17T07:10:04.324Z,1.48
2023-05-17T07:12:31.980Z,1.52
2023-05-17T07:14:59.578Z,1.50
2023-05-17T07:17:27.280Z,1.38
2023-05-17T07:19:55.038Z,1.80
2023-05-17T07:22:25.699Z,1.67
2023-05-17T07:24:54.723Z,1.48
2023-05-17T07:27:22.421Z,1.83
2023-05-17T07:29:50.189Z,1.50
2023-05-17T07:32:18.070Z,1.55
2023-05-17T07:34:49.073Z,1.65
2023-05-17T07:37:16.736Z,1.48
2023-05-17T07:39:44.348Z,1.90
2023-05-17T07:42:14.579Z,1.55
2023-05-17T07:44:42.304Z,1.83
2023-05-17T07:47:09.945Z,1.95
2023-05-17T07:49:37.564Z,2.10
2023-05-17T07:52:05.666Z,1.70
2023-05-17T07:54:33.285Z,1.73
2023-05-17T07:57:01.026Z,1.70
2023-05-17T07:59:30.007Z,1.90
2023-05-17T08:01:57.979Z,1.60
2023-05-17T08:04:25.629Z,1.98
2023-05-17T08:06:53.309Z,1.60
2023-05-17T08:09:20.949Z,2.03
2023-05-17T08:11:48.569Z,1.85
2023-05-17T08:14:17.321Z,2.55
2023-05-17T08:16:47.101Z,1.63
2023-05-17T08:19:16.405Z,1.73
2023-05-17T08:21:46.185Z,1.83
2023-05-17T08:24:13.856Z,1.90
2023-05-17T08:26:41.935Z,1.80
2023-05-17T08:29:09.733Z,2.05
2023-05-17T08:31:37.411Z,1.52
2023-05-17T08:34:06.506Z,1.88
2023-05-17T08:36:34.381Z,1.90
2023-05-17T08:39:02.097Z,2.40
2023-05-17T08:41:30.154Z,1.83
2023-05-17T08:43:59.943Z,1.83
2023-05-17T08:46:28.692Z,1.88
2023-05-17T08:48:59.967Z,1.92
2023-05-17T08:51:29.846Z,1.92
2023-05-17T08:53:57.616Z,1.95
2023-05-17T08:56:28.294Z,2.05
2023-05-17T08:58:58.205Z,1.45
2023-05-17T09:01:28.380Z,2.00
2023-05-17T09:03:57.376Z,2.20
2023-05-17T09:06:25.532Z,1.60
2023-05-17T09:08:55.700Z,1.65
2023-05-17T09:11:27.888Z,2.10
2023-05-17T09:13:58.976Z,2.10
2023-05-17T09:16:29.107Z,2.08
2023-05-17T09:18:58.176Z,2.08
2023-05-17T09:21:28.216Z,2.40
2023-05-17T09:24:06.459Z,2.08
2023-05-17T09:26:40.210Z,1.80
2023-05-17T09:29:12.108Z,2.30
2023-05-17T09:31:40.201Z,2.20
2023-05-17T09:34:09.013Z,2.05
2023-05-17T09:36:38.699Z,2.58
2023-05-17T09:39:11.984Z,2.10
2023-05-17T09:41:43.247Z,1.92
2023-05-17T09:44:12.140Z,2.20
2023-05-17T09:46:43.073Z,2.30
2023-05-17T09:49:10.736Z,2.45
2023-05-17T09:51:42.314Z,1.95
2023-05-17T09:54:11.901Z,2.50
2023-05-17T09:56:40.043Z,1.83
2023-05-17T10:03:28.277Z,2.38
2023-05-17T10:05:56.165Z,2.30
2023-05-17T10:08:25.979Z,1.88
2023-05-17T10:10:57.174Z,2.00
2023-05-17T10:13:31.469Z,2.00
2023-05-17T10:16:01.554Z,1.92
2023-05-17T10:18:31.043Z,1.73
2023-05-17T10:21:00.462Z,1.48
2023-05-17T10:23:28.754Z,1.60
2023-05-17T10:25:57.739Z,1.60
2023-05-17T10:28:28.395Z,1.98
2023-05-17T10:30:58.487Z,1.80
2023-05-17T10:33:28.364Z,1.88
2023-05-17T10:35:57.260Z,1.77
2023-05-17T10:38:31.996Z,1.98
2023-05-17T10:41:05.383Z,1.67
2023-05-17T10:43:34.192Z,1.65
2023-05-17T10:46:04.350Z,1.65
2023-05-17T10:48:32.168Z,3.42
2023-05-17T10:51:07.735Z,1.77
2023-05-17T10:53:36.344Z,2.10
2023-05-17T10:56:05.639Z,1.90
2023-05-17T10:58:33.315Z,1.50
2023-05-17T11:01:01.029Z,1.63
2023-05-17T11:03:30.247Z,1.40
2023-05-17T11:06:24.741Z,1.58
2023-05-17T11:09:09.879Z,1.92
2023-05-17T11:11:38.976Z,1.63
2023-05-17T11:14:08.706Z,1.60
2023-05-17T11:16:37.980Z,1.60
2023-05-17T11:19:10.526Z,1.70
2023-05-17T11:21:46.707Z,1.70
2023-05-17T11:24:22.061Z,1.50
2023-05-17T11:26:51.507Z,1.90
2023-05-17T11:29:19.201Z,1.58
2023-05-17T11:31:52.118Z,1.58
2023-05-17T11:34:19.978Z,1.75
2023-05-17T11:36:52.906Z,2.40
2023-05-17T11:39:22.578Z,1.73
2023-05-17T11:41:53.052Z,1.70
2023-05-17T11:44:30.684Z,1.70
2023-05-17T11:47:03.292Z,1.70
2023-05-17T11:49:36.315Z,1.90
2023-05-17T11:52:06.086Z,2.15
2023-05-17T11:54:34.759Z,1.92
2023-05-17T11:57:05.115Z,1.98
2023-05-17T11:59:39.752Z,1.88
2023-05-17T12:02:07.581Z,1.65
2023-05-17T12:04:38.540Z,1.92
2023-05-17T12:07:09.606Z,2.10
2023-05-17T12:09:37.835Z,1.55
2023-05-17T12:12:07.593Z,1.88
2023-05-17T12:14:35.739Z,1.88
2023-05-17T12:17:07.930Z,1.20
2023-05-17T12:19:35.992Z,1.40
2023-05-17T12:22:08.149Z,2.78
2023-05-17T12:24:39.499Z,1.83
2023-05-17T12:27:08.790Z,1.77
2023-05-17T12:29:36.342Z,1.80
2023-05-17T12:32:05.145Z,1.70
2023-05-17T12:34:33.132Z,1.85
2023-05-17T12:37:01.068Z,2.00
2023-05-17T12:39:28.838Z,1.70
2023-05-17T12:41:57.209Z,1.60
2023-05-17T12:44:26.432Z,2.05
2023-05-17T12:46:56.199Z,1.63
2023-05-17T12:49:24.336Z,1.95
2023-05-17T12:51:52.010Z,1.80
2023-05-17T12:54:29.781Z,1.80
2023-05-17T12:56:57.613Z,2.00
2023-05-17T12:59:28.642Z,1.85
2023-05-17T13:01:57.876Z,1.70
2023-05-17T13:04:31.662Z,1.50
2023-05-17T13:07:00.879Z,1.67
2023-05-17T13:09:30.699Z,1.83
2023-05-17T13:11:59.913Z,2.10
2023-05-17T13:14:41.208Z,1.80
2023-05-17T13:17:12.022Z,1.70
2023-05-17T13:19:40.268Z,2.60
2023-05-17T13:22:08.633Z,1.95
2023-05-17T13:24:37.790Z,1.90
2023-05-17T13:27:06.628Z,2.47
2023-05-17T13:29:40.125Z,2.10
2023-05-17T13:32:11.476Z,1.75
2023-05-17T13:34:39.802Z,2.13
2023-05-17T13:37:11.474Z,2.00
2023-05-17T13:39:40.140Z,1.73
2023-05-17T13:42:07.943Z,2.10
2023-05-17T13:44:35.635Z,1.80
2023-05-17T13:47:06.972Z,1.90
2023-05-17T13:49:36.181Z,1.90
2023-05-17T13:52:08.373Z,1.67
2023-05-17T13:54:36.301Z,1.30
2023-05-17T13:57:04.132Z,1.95
2023-05-17T13:59:31.888Z,1.50
2023-05-17T14:01:59.517Z,1.45
2023-05-17T14:04:27.133Z,1.75
2023-05-17T14:06:56.301Z,1.70
2023-05-17T14:09:23.870Z,1.65
2023-05-17T14:11:51.541Z,1.60
2023-05-17T14:14:19.217Z,1.90
2023-05-17T14:16:46.762Z,1.67
2023-05-17T14:19:14.401Z,1.92
2023-05-17T14:21:42.014Z,1.85
2023-05-17T14:24:10.925Z,1.77
2023-05-17T14:26:38.635Z,2.38
2023-05-17T14:29:06.671Z,2.15
2023-05-17T14:31:34.292Z,2.25
2023-05-17T14:34:03.693Z,2.03
2023-05-17T14:36:31.736Z,2.00
2023-05-17T14:39:00.217Z,2.13
2023-05-17T14:41:29.193Z,1.95
2023-05-17T14:43:56.791Z,1.92
2023-05-17T14:46:24.632Z,1.92
2023-05-17T14:48:52.459Z,1.90
2023-05-17T14:51:20.284Z,2.03
2023-05-17T14:53:47.932Z,1.83
2023-05-17T14:56:16.704Z,1.67
2023-05-17T14:58:45.651Z,1.80
2023-05-17T15:01:13.456Z,1.88
2023-05-17T15:03:41.252Z,2.00
2023-05-17T15:06:11.645Z,2.03
2023-05-17T15:08:39.761Z,1.73
2023-05-17T15:11:07.425Z,1.90
2023-05-17T15:13:35.012Z,1.58
2023-05-17T15:16:04.411Z,1.80
2023-05-17T15:18:32.976Z,1.98
2023-05-17T15:21:00.749Z,1.63
2023-05-17T15:23:28.494Z,1.73
2023-05-17T15:25:56.217Z,1.73
2023-05-17T15:28:23.906Z,1.92
2023-05-17T15:31:01.003Z,1.83
2023-05-17T15:33:30.937Z,1.50
2023-05-17T15:35:58.895Z,2.17
2023-05-17T15:38:26.945Z,2.30
2023-05-17T15:41:03.779Z,2.03
2023-05-17T15:43:31.967Z,2.78
2023-05-17T15:45:59.598Z,2.70
2023-05-17T15:48:29.100Z,2.20
2023-05-17T15:50:58.813Z,2.20
2023-05-17T15:53:27.842Z,2.10
2023-05-17T15:55:55.833Z,1.85
2023-05-17T15:58:27.683Z,1.67
2023-05-17T16:00:55.774Z,1.60
2023-05-17T16:03:23.409Z,1.60
2023-05-17T16:05:51.468Z,2.03
2023-05-17T16:08:20.514Z,1.55
2023-05-17T16:10:48.261Z,1.60
2023-05-17T16:13:16.177Z,2.30
2023-05-17T16:15:43.802Z,2.58
2023-05-17T16:18:13.696Z,1.92
2023-05-17T16:20:41.530Z,1.75
2023-05-17T16:23:09.121Z,1.50
2023-05-17T16:25:38.127Z,2.03
2023-05-17T16:28:05.787Z,1.55
2023-05-17T16:30:33.366Z,1.88
2023-05-17T16:33:01.128Z,1.80
2023-05-17T16:35:29.185Z,1.73
2023-05-17T16:37:56.909Z,1.80
2023-05-17T16:40:24.455Z,1.60
2023-05-17T16:42:53.363Z,1.65
2023-05-17T16:45:21.190Z,1.48
2023-05-17T16:47:48.826Z,1.88
2023-05-17T16:50:16.856Z,2.33
2023-05-17T16:52:45.309Z,2.08
2023-05-17T16:55:13.026Z,1.70
2023-05-17T16:57:41.903Z,1.70
2023-05-17T17:00:12.719Z,1.70
2023-05-17T17:02:40.391Z,1.70
2023-05-17T17:05:10.161Z,1.90
2023-05-17T17:07:37.886Z,1.50
2023-05-17T17:10:06.278Z,1.83
2023-05-17T17:12:33.901Z,2.85
2023-05-17T17:15:02.190Z,2.05
2023-05-17T17:17:31.807Z,1.50
2023-05-17T17:19:59.502Z,1.60
2023-05-17T17:22:27.216Z,1.90
2023-05-17T17:24:54.939Z,1.65
2023-05-17T17:27:22.519Z,1.92
2023-05-17T17:29:50.101Z,1.90
2023-05-17T17:32:17.720Z,1.52
2023-05-17T17:34:46.702Z,1.70
2023-05-17T17:37:14.294Z,1.73
2023-05-17T17:39:42.203Z,1.50
2023-05-17T17:42:10.763Z,2.00
2023-05-17T17:44:38.412Z,1.58
2023-05-17T17:47:06.393Z,1.65
2023-05-17T17:49:35.837Z,1.60
2023-05-17T17:52:04.922Z,1.60
2023-05-17T17:54:32.558Z,3.42
2023-05-17T17:57:00.203Z,1.67
2023-05-17T17:59:27.813Z,1.30
2023-05-17T18:01:55.501Z,1.80
2023-05-17T18:04:23.251Z,1.52
2023-05-17T18:06:50.878Z,1.83
2023-05-17T18:09:19.973Z,1.83
2023-05-17T18:11:47.750Z,1.55
2023-05-17T18:14:15.612Z,1.65
2023-05-17T18:16:43.306Z,1.63
2023-05-17T18:19:11.063Z,1.70
2023-05-17T18:21:38.702Z,1.75
2023-05-17T18:24:06.871Z,1.50
2023-05-17T18:26:36.000Z,2.13
2023-05-17T18:29:03.935Z,1.98
2023-05-17T18:31:31.754Z,1.95
2023-05-17T18:33:59.366Z,1.88
2023-05-17T18:36:27.623Z,1.98
2023-05-17T18:38:58.466Z,1.70
2023-05-17T18:41:26.224Z,2.05
2023-05-17T18:43:55.823Z,2.00
2023-05-17T18:46:23.493Z,1.75
2023-05-17T18:48:52.567Z,1.70
2023-05-17T18:51:20.219Z,1.55
2023-05-17T18:53:47.847Z,1.67
2023-05-17T18:56:22.377Z,1.40
2023-05-17T18:58:51.771Z,1.70
2023-05-17T19:01:21.577Z,1.80
2023-05-17T19:03:51.356Z,1.80
2023-05-17T19:06:19.507Z,1.52
2023-05-17T19:08:47.132Z,1.40
2023-05-17T19:11:14.804Z,1.60
2023-05-17T19:13:42.692Z,1.77
2023-05-17T19:16:10.462Z,1.80
2023-05-17T19:18:39.470Z,2.22
2023-05-17T19:21:07.401Z,2.05
2023-05-17T19:23:35.942Z,8.13
2023-05-17T19:26:03.986Z,4.50
2023-05-17T19:28:32.951Z,1.73
2023-05-17T19:31:00.792Z,1.90
2023-05-17T19:33:28.364Z,1.63
2023-05-17T19:35:57.274Z,1.83
2023-05-17T19:38:24.815Z,1.60
2023-05-17T19:40:52.549Z,4.20
2023-05-17T19:43:20.229Z,10.23
2023-05-17T19:45:47.904Z,3.88
2023-05-17T19:48:15.489Z,2.90
2023-05-17T19:50:43.112Z,2.97
2023-05-17T19:53:12.047Z,2.70
2023-05-17T19:55:40.942Z,2.20
2023-05-17T19:58:08.571Z,2.20
2023-05-17T20:00:37.484Z,2.22
2023-05-17T20:03:06.135Z,2.00
2023-05-17T20:05:34.100Z,2.13
2023-05-17T20:08:02.505Z,1.95
2023-05-17T20:10:32.165Z,1.90
2023-05-17T20:12:59.805Z,2.10
2023-05-17T20:15:27.457Z,2.15
2023-05-17T20:17:55.215Z,2.17
2023-05-17T20:20:23.406Z,2.33
2023-05-17T20:22:51.005Z,2.15
2023-05-17T20:25:18.627Z,2.30
2023-05-17T20:27:47.548Z,2.60
2023-05-17T20:30:15.217Z,2.60
2023-05-17T20:32:42.918Z,2.47
2023-05-17T20:35:12.170Z,2.90
2023-05-17T20:37:39.858Z,2.60
2023-05-17T20:40:09.093Z,2.30
2023-05-17T20:42:38.091Z,2.60
2023-05-17T20:45:08.796Z,2.53
2023-05-17T20:47:36.681Z,2.58
2023-05-17T20:50:04.866Z,2.95
2023-05-17T20:52:39.356Z,2.70
2023-05-17T20:55:08.875Z,3.08
2023-05-17T20:57:36.592Z,2.90
2023-05-17T21:00:06.125Z,3.42
2023-05-17T21:02:35.112Z,3.25
2023-05-17T21:05:03.260Z,3.58
2023-05-17T21:07:30.868Z,4.57
2023-05-17T21:09:58.587Z,5.05
2023-05-17T21:12:26.370Z,4.88
2023-05-17T21:15:07.880Z,4.68
2023-05-17T21:17:42.957Z,4.68
2023-05-17T21:20:11.642Z,4.55
2023-05-17T21:22:39.273Z,4.60
2023-05-17T21:25:07.875Z,4.85
2023-05-17T21:27:35.655Z,5.05
2023-05-17T21:30:03.422Z,4.80
2023-05-17T21:32:31.066Z,4.05
2023-05-17T21:35:00.024Z,3.92
2023-05-17T21:37:27.698Z,3.70
2023-05-17T21:39:55.339Z,3.28
2023-05-17T21:42:22.968Z,3.97
2023-05-17T21:44:50.644Z,3.83
2023-05-17T21:47:18.252Z,3.17
2023-05-17T21:49:45.829Z,3.67
2023-05-17T21:52:14.800Z,3.33
2023-05-17T21:54:42.521Z,3.63
2023-05-17T21:57:10.208Z,4.13
2023-05-17T21:59:37.844Z,3.53
2023-05-17T22:02:06.714Z,3.85
2023-05-17T22:04:34.340Z,3.55
2023-05-17T22:07:01.955Z,3.70
2023-05-17T22:09:30.963Z,3.50
2023-05-17T22:11:59.600Z,3.85
2023-05-17T22:14:33.053Z,3.63
2023-05-17T22:17:00.784Z,3.90
2023-05-17T22:19:30.196Z,4.13
2023-05-17T22:21:58.115Z,3.72
2023-05-17T22:24:25.792Z,4.13
2023-05-17T22:26:55.046Z,3.90
2023-05-17T22:29:22.730Z,3.55
2023-05-17T22:31:53.098Z,3.67
2023-05-17T22:34:21.774Z,3.85
2023-05-17T22:36:49.439Z,3.92
2023-05-17T22:39:16.998Z,4.80
2023-05-17T22:41:44.663Z,4.57
2023-05-17T22:44:13.559Z,4.30
2023-05-17T22:46:41.946Z,4.40
2023-05-17T22:49:09.679Z,4.30
2023-05-17T22:51:38.811Z,3.65
2023-05-17T22:54:06.825Z,3.40
2023-05-17T22:56:34.430Z,3.78
2023-05-17T22:59:01.992Z,3.88
2023-05-17T23:01:31.056Z,3.80
2023-05-17T23:03:58.798Z,3.38
2023-05-17T23:06:26.425Z,3.92
2023-05-17T23:08:53.999Z,3.58
2023-05-17T23:11:21.578Z,3.50
2023-05-17T23:13:49.131Z,3.40
2023-05-17T23:16:16.709Z,3.72
2023-05-17T23:18:46.293Z,3.92
2023-05-17T23:21:14.021Z,4.15
2023-05-17T23:23:41.656Z,4.80
2023-05-17T23:26:09.250Z,4.85
2023-05-17T23:28:37.685Z,5.18
2023-05-17T23:31:05.702Z,4.07
2023-05-17T23:33:33.355Z,3.85
2023-05-17T23:36:02.307Z,4.13
2023-05-17T23:38:29.955Z,3.67
2023-05-17T23:40:58.171Z,3.67
2023-05-17T23:43:26.208Z,3.90
2023-05-17T23:45:53.869Z,3.38
2023-05-17T23:48:25.526Z,3.80
2023-05-17T23:50:53.305Z,3.90
2023-05-17T23:53:23.486Z,3.63
2023-05-17T23:55:51.160Z,3.65
2023-05-17T23:58:18.772Z,4.18
